createdAt,value
2017-09-13T00:00:27.877Z,11.47
2017-09-13T00:02:58.823Z,31.45
2017-09-13T00:05:27.969Z,17.02
2017-09-13T00:07:57.183Z,17.83
2017-09-13T00:10:27.267Z,31.43
2017-09-13T00:12:57.284Z,20.10
2017-09-13T00:15:26.459Z,9.13
2017-09-13T00:17:56.032Z,12.88
2017-09-13T00:20:25.999Z,13.73
2017-09-13T00:22:55.167Z,20.30
2017-09-13T00:25:24.606Z,15.68
2017-09-13T00:27:54.496Z,24.08
2017-09-13T00:30:24.462Z,18.42
2017-09-13T00:32:53.829Z,14.97
2017-09-13T00:35:23.350Z,18.13
2017-09-13T00:37:52.445Z,27.63
2017-09-13T00:40:21.956Z,9.93
2017-09-13T00:42:51.069Z,10.80
2017-09-13T00:45:20.243Z,19.00
2017-09-13T00:47:49.514Z,18.10
2017-09-13T00:50:19.503Z,13.25
2017-09-13T00:52:49.499Z,21.03
2017-09-13T00:55:19.006Z,15.95
2017-09-13T00:57:48.894Z,24.17
2017-09-13T01:00:18.019Z,15.10
2017-09-13T01:02:47.470Z,19.25
2017-09-13T01:05:16.594Z,22.23
2017-09-13T01:07:45.803Z,13.68
2017-09-13T01:10:16.159Z,11.47
2017-09-13T01:12:46.249Z,14.63
2017-09-13T01:15:15.373Z,12.60
2017-09-13T01:17:44.848Z,20.85
2017-09-13T01:20:14.053Z,12.50
2017-09-13T01:22:43.202Z,14.18
2017-09-13T01:25:12.658Z,14.03
2017-09-13T01:27:42.182Z,18.42
2017-09-13T01:30:11.445Z,17.20
2017-09-13T01:32:41.599Z,15.40
2017-09-13T01:35:10.850Z,17.80
2017-09-13T01:37:39.978Z,12.30
2017-09-13T01:40:09.500Z,19.73
2017-09-13T01:42:38.594Z,17.20
2017-09-13T01:45:08.526Z,13.23
2017-09-13T01:47:37.709Z,11.57
2017-09-13T01:50:06.789Z,16.43
2017-09-13T01:52:35.955Z,20.23
2017-09-13T01:55:05.300Z,23.97
2017-09-13T01:57:34.497Z,18.90
2017-09-13T02:00:04.576Z,16.40
2017-09-13T02:02:33.963Z,17.50
2017-09-13T02:05:03.126Z,18.62
2017-09-13T02:07:32.650Z,18.33
2017-09-13T02:10:02.759Z,17.27
2017-09-13T02:12:32.735Z,18.15
2017-09-13T02:15:01.905Z,12.45
2017-09-13T02:17:31.436Z,19.52
2017-09-13T02:20:02.218Z,21.95
2017-09-13T02:22:31.699Z,18.33
2017-09-13T02:25:01.019Z,18.25
2017-09-13T02:27:30.149Z,14.57
2017-09-13T02:29:59.323Z,12.82
2017-09-13T02:32:28.880Z,11.30
2017-09-13T02:34:58.741Z,19.00
2017-09-13T02:37:27.827Z,14.25
2017-09-13T02:39:57.063Z,26.00
2017-09-13T02:42:26.161Z,23.42
2017-09-13T02:44:55.267Z,17.30
2017-09-13T02:47:25.399Z,15.70
2017-09-13T02:49:54.532Z,16.62
2017-09-13T02:52:23.621Z,11.73
2017-09-13T02:54:53.080Z,16.95
2017-09-13T02:57:22.972Z,7.93
2017-09-13T02:59:53.671Z,12.57
2017-09-13T03:02:23.678Z,16.20
2017-09-13T03:04:52.849Z,10.10
2017-09-13T03:07:22.652Z,17.13
2017-09-13T03:09:52.030Z,18.90
2017-09-13T03:12:21.554Z,15.43
2017-09-13T03:14:50.633Z,13.90
2017-09-13T03:17:19.806Z,8.70
2017-09-13T03:19:49.662Z,19.27
2017-09-13T03:22:19.095Z,11.32
2017-09-13T03:24:49.374Z,23.03
2017-09-13T03:27:18.487Z,12.85
2017-09-13T03:29:47.643Z,17.60
2017-09-13T03:32:16.848Z,19.93
2017-09-13T03:34:45.978Z,21.42
2017-09-13T03:37:15.144Z,15.80
2017-09-13T03:39:44.458Z,19.87
2017-09-13T03:42:13.626Z,13.23
2017-09-13T03:44:43.127Z,14.35
2017-09-13T03:47:12.797Z,19.33
2017-09-13T03:49:42.650Z,13.85
2017-09-13T03:52:12.572Z,18.53
2017-09-13T03:54:41.867Z,14.50
2017-09-13T03:57:10.995Z,22.73
2017-09-13T03:59:40.279Z,15.68
2017-09-13T04:02:10.551Z,24.63
2017-09-13T04:04:39.714Z,26.45
2017-09-13T04:07:09.121Z,22.98
2017-09-13T04:09:38.424Z,23.43
2017-09-13T04:12:07.591Z,22.37
2017-09-13T04:14:37.307Z,19.20
2017-09-13T04:17:07.444Z,15.93
2017-09-13T04:19:36.567Z,19.65
2017-09-13T04:22:05.821Z,22.45
2017-09-13T04:24:34.993Z,23.98
2017-09-13T04:27:04.938Z,15.67
2017-09-13T04:29:34.075Z,26.80
2017-09-13T04:32:04.369Z,21.45
2017-09-13T04:34:34.261Z,21.62
2017-09-13T04:37:03.458Z,22.00
2017-09-13T04:39:33.650Z,19.40
2017-09-13T04:42:02.770Z,20.10
2017-09-13T04:44:31.862Z,20.12
2017-09-13T04:47:01.331Z,21.30
2017-09-13T04:49:30.452Z,20.60
2017-09-13T04:51:59.783Z,21.07
2017-09-13T04:54:29.880Z,22.08
2017-09-13T04:56:59.742Z,19.08
2017-09-13T04:59:28.918Z,31.65
2017-09-13T05:01:58.239Z,27.40
2017-09-13T05:04:28.321Z,21.85
2017-09-13T05:06:58.283Z,25.05
2017-09-13T05:09:27.634Z,29.63
2017-09-13T05:12:00.171Z,27.42
2017-09-13T05:14:29.402Z,25.40
2017-09-13T05:16:58.497Z,24.70
2017-09-13T05:19:27.647Z,25.17
2017-09-13T05:21:57.929Z,22.83
2017-09-13T05:24:27.390Z,21.67
2017-09-13T05:26:58.595Z,20.85
2017-09-13T05:29:28.690Z,20.77
2017-09-13T05:31:57.814Z,23.95
2017-09-13T05:34:29.442Z,29.00
2017-09-13T05:36:58.618Z,28.00
2017-09-13T05:39:28.482Z,26.77
2017-09-13T05:41:57.730Z,15.63
2017-09-13T05:44:26.951Z,21.85
2017-09-13T05:46:56.915Z,22.58
2017-09-13T05:49:26.526Z,16.87
2017-09-13T05:51:55.675Z,17.02
2017-09-13T05:54:24.802Z,20.65
2017-09-13T05:56:54.992Z,17.42
2017-09-13T05:59:24.188Z,21.75
2017-09-13T06:01:54.896Z,16.80
2017-09-13T06:04:24.268Z,15.55
2017-09-13T06:06:53.442Z,11.32
2017-09-13T06:09:23.781Z,20.60
2017-09-13T06:11:53.867Z,19.17
2017-09-13T06:14:22.963Z,16.52
2017-09-13T06:16:52.845Z,21.25
2017-09-13T06:19:21.994Z,18.10
2017-09-13T06:21:51.095Z,9.43
2017-09-13T06:24:20.186Z,18.42
2017-09-13T06:26:49.361Z,10.45
2017-09-13T06:29:18.536Z,9.52
2017-09-13T06:31:48.444Z,12.23
2017-09-13T06:34:17.684Z,12.05
2017-09-13T06:36:46.999Z,12.73
2017-09-13T06:39:16.142Z,9.30
2017-09-13T06:41:45.413Z,30.48
2017-09-13T06:44:15.439Z,7.70
2017-09-13T06:46:44.569Z,11.30
2017-09-13T06:49:13.970Z,13.50
2017-09-13T06:51:43.319Z,10.07
2017-09-13T06:54:12.493Z,8.05
2017-09-13T06:56:41.991Z,9.43
2017-09-13T06:59:11.243Z,12.93
2017-09-13T07:01:40.389Z,11.10
2017-09-13T07:04:09.790Z,12.37
2017-09-13T07:06:38.919Z,17.10
2017-09-13T07:09:08.051Z,14.95
2017-09-13T07:11:37.303Z,8.13
2017-09-13T07:14:06.383Z,8.27
2017-09-13T07:16:36.275Z,5.90
2017-09-13T07:19:05.566Z,8.35
2017-09-13T07:21:34.668Z,6.55
2017-09-13T07:24:04.625Z,10.30
2017-09-13T07:26:33.918Z,15.88
2017-09-13T07:29:03.009Z,5.85
2017-09-13T07:31:32.287Z,11.32
2017-09-13T07:34:01.580Z,5.15
2017-09-13T07:36:30.715Z,8.27
2017-09-13T07:38:59.803Z,5.85
2017-09-13T07:41:29.259Z,7.43
2017-09-13T07:43:58.370Z,3.45
2017-09-13T07:46:27.599Z,4.93
2017-09-13T07:48:57.030Z,3.12
2017-09-13T07:51:26.148Z,3.53
2017-09-13T07:53:55.281Z,7.07
2017-09-13T07:56:24.650Z,3.92
2017-09-13T07:58:53.797Z,3.60
2017-09-13T08:01:22.944Z,1.77
2017-09-13T08:03:52.400Z,2.87
2017-09-13T08:06:21.514Z,2.85
2017-09-13T08:08:51.018Z,3.10
2017-09-13T08:11:20.407Z,4.43
2017-09-13T08:13:49.671Z,2.67
2017-09-13T08:16:20.612Z,2.58
2017-09-13T08:18:50.888Z,2.22
2017-09-13T08:21:20.751Z,2.65
2017-09-13T08:23:49.879Z,2.90
2017-09-13T08:26:19.806Z,1.85
2017-09-13T08:28:48.896Z,1.60
2017-09-13T08:31:18.039Z,3.58
2017-09-13T08:33:47.626Z,3.12
2017-09-13T08:36:17.587Z,2.97
2017-09-13T08:38:47.676Z,2.80
2017-09-13T08:41:17.084Z,4.37
2017-09-13T08:43:46.163Z,2.40
2017-09-13T08:46:15.430Z,5.85
2017-09-13T08:48:46.117Z,3.43
2017-09-13T08:51:15.892Z,3.92
2017-09-13T08:53:45.866Z,5.80
2017-09-13T08:56:15.403Z,15.10
2017-09-13T08:58:44.611Z,12.23
2017-09-13T09:01:13.873Z,7.47
2017-09-13T09:03:43.350Z,16.90
2017-09-13T09:06:12.513Z,3.40
2017-09-13T09:08:41.800Z,5.70
2017-09-13T09:11:11.872Z,3.30
2017-09-13T09:13:41.037Z,6.50
2017-09-13T09:16:11.167Z,9.90
2017-09-13T09:18:41.072Z,8.57
2017-09-13T09:21:10.258Z,5.57
2017-09-13T09:23:40.577Z,5.07
2017-09-13T09:26:10.487Z,12.03
2017-09-13T09:28:41.844Z,4.10
2017-09-13T09:31:11.231Z,8.90
2017-09-13T09:33:40.546Z,6.83
2017-09-13T09:36:11.271Z,8.40
2017-09-13T09:38:41.300Z,10.17
2017-09-13T09:41:11.210Z,5.90
2017-09-13T09:43:41.251Z,6.57
2017-09-13T09:46:10.730Z,8.60
2017-09-13T09:48:39.955Z,7.70
2017-09-13T09:51:09.088Z,7.13
2017-09-13T09:53:38.491Z,8.33
2017-09-13T09:56:07.929Z,8.17
2017-09-13T09:58:37.873Z,15.50
2017-09-13T10:01:07.174Z,7.33
2017-09-13T10:03:36.651Z,5.63
2017-09-13T10:06:05.770Z,6.87
2017-09-13T10:08:35.041Z,4.30
2017-09-13T10:11:06.091Z,9.13
2017-09-13T10:13:35.209Z,6.43
2017-09-13T10:16:04.610Z,10.20
2017-09-13T10:18:33.706Z,8.87
2017-09-13T10:21:02.794Z,6.50
2017-09-13T10:23:32.099Z,5.00
2017-09-13T10:26:01.194Z,7.80
2017-09-13T10:28:31.062Z,11.73
2017-09-13T10:31:00.186Z,8.83
2017-09-13T10:33:30.095Z,15.03
2017-09-13T10:35:59.217Z,16.87
2017-09-13T10:38:28.522Z,8.97
2017-09-13T10:40:58.145Z,4.53
2017-09-13T10:43:27.360Z,17.43
2017-09-13T10:45:56.899Z,8.77
2017-09-13T10:48:26.003Z,11.30
2017-09-13T10:50:55.086Z,7.80
2017-09-13T10:53:24.435Z,5.67
2017-09-13T10:55:53.608Z,11.63
2017-09-13T10:58:22.761Z,3.90
2017-09-13T11:00:53.098Z,9.30
2017-09-13T11:03:22.197Z,9.30
2017-09-13T11:05:51.351Z,9.80
2017-09-13T11:08:20.723Z,16.23
2017-09-13T11:10:49.856Z,20.23
2017-09-13T11:13:19.803Z,10.90
2017-09-13T11:15:49.248Z,11.63
2017-09-13T11:18:19.153Z,9.30
2017-09-13T11:20:49.655Z,12.63
2017-09-13T11:23:19.161Z,12.83
2017-09-13T11:25:48.324Z,16.70
2017-09-13T11:28:17.488Z,11.07
2017-09-13T11:30:46.923Z,14.70
2017-09-13T11:33:16.131Z,12.17
2017-09-13T11:35:45.530Z,7.13
2017-09-13T11:38:14.939Z,5.43
2017-09-13T11:40:44.124Z,7.40
2017-09-13T11:43:13.364Z,8.50
2017-09-13T11:45:42.640Z,17.33
2017-09-13T11:48:11.834Z,6.13
2017-09-13T11:50:41.034Z,11.23
2017-09-13T11:53:10.636Z,5.17
2017-09-13T11:55:40.549Z,9.67
2017-09-13T11:58:09.726Z,20.07
2017-09-13T12:00:39.255Z,12.67
2017-09-13T12:03:08.440Z,8.87
2017-09-13T12:05:37.523Z,10.03
2017-09-13T12:08:06.889Z,7.57
2017-09-13T12:10:36.018Z,21.20
2017-09-13T12:13:05.118Z,10.17
2017-09-13T12:15:34.327Z,12.57
2017-09-13T12:18:04.260Z,9.60
2017-09-13T12:20:33.387Z,12.57
2017-09-13T12:23:02.662Z,11.93
2017-09-13T12:25:32.884Z,12.30
2017-09-13T12:28:02.036Z,10.83
2017-09-13T12:30:31.310Z,15.97
2017-09-13T12:33:00.413Z,13.60
2017-09-13T12:35:29.509Z,11.30
2017-09-13T12:37:58.892Z,11.40
2017-09-13T12:40:28.004Z,13.97
2017-09-13T12:42:58.467Z,7.10
2017-09-13T12:45:27.935Z,7.10
2017-09-13T12:47:57.016Z,16.93
2017-09-13T12:50:26.586Z,25.80
2017-09-13T12:52:56.029Z,9.93
2017-09-13T12:55:25.137Z,13.73
2017-09-13T12:57:54.376Z,5.50
2017-09-13T13:00:23.678Z,11.77
2017-09-13T13:02:54.275Z,15.80
2017-09-13T13:05:23.531Z,7.90
2017-09-13T13:07:54.736Z,13.17
2017-09-13T13:10:28.971Z,15.57
2017-09-13T13:13:05.177Z,12.83
2017-09-13T13:15:34.330Z,7.90
2017-09-13T13:18:03.486Z,17.30
2017-09-13T13:20:32.580Z,21.77
2017-09-13T13:23:01.679Z,13.73
2017-09-13T13:25:31.444Z,11.50
2017-09-13T13:28:01.605Z,9.40
2017-09-13T13:30:33.079Z,20.50
2017-09-13T13:33:02.382Z,11.60
2017-09-13T13:35:31.626Z,20.50
2017-09-13T13:38:01.339Z,21.07
2017-09-13T13:40:30.812Z,17.30
2017-09-13T13:42:59.914Z,18.03
2017-09-13T13:45:29.022Z,21.07
2017-09-13T13:47:58.648Z,15.43
2017-09-13T13:50:28.537Z,15.73
2017-09-13T13:52:57.664Z,11.20
2017-09-13T13:55:27.570Z,18.80
2017-09-13T13:57:57.595Z,18.87
2017-09-13T14:00:27.753Z,9.37
2017-09-13T14:02:58.499Z,12.67
2017-09-13T14:05:28.431Z,25.03
2017-09-13T14:07:58.977Z,25.33
2017-09-13T14:10:28.882Z,22.23
2017-09-13T14:13:10.681Z,17.80
2017-09-13T14:15:41.235Z,15.60
2017-09-13T14:18:10.639Z,11.10
2017-09-13T14:20:40.709Z,11.33
2017-09-13T14:23:10.619Z,31.37
2017-09-13T14:28:21.688Z,17.87
2017-09-13T14:30:53.371Z,11.97
2017-09-13T14:33:23.797Z,9.60
2017-09-13T14:35:53.566Z,14.23
2017-09-13T14:38:23.850Z,22.40
2017-09-13T14:40:53.438Z,21.83
2017-09-13T14:43:23.588Z,19.30
2017-09-13T14:45:52.818Z,19.90
2017-09-13T14:48:22.705Z,27.77
2017-09-13T14:50:52.825Z,29.97
2017-09-13T14:53:22.222Z,31.00
2017-09-13T14:55:52.806Z,46.37
2017-09-13T14:58:22.105Z,28.10
2017-09-13T15:00:51.242Z,30.03
2017-09-13T15:03:20.845Z,35.83
2017-09-13T15:05:50.852Z,19.23
2017-09-13T15:08:23.149Z,21.57
2017-09-13T15:10:53.018Z,26.47
2017-09-13T15:13:22.438Z,19.23
2017-09-13T15:15:52.010Z,26.20
2017-09-13T15:18:21.758Z,17.20
2017-09-13T15:20:50.974Z,52.87
2017-09-13T15:23:20.695Z,20.70
2017-09-13T15:25:51.748Z,26.83
2017-09-13T15:28:22.160Z,30.53
2017-09-13T15:30:51.602Z,30.70
2017-09-13T15:33:21.413Z,29.93
2017-09-13T15:35:53.190Z,38.67
2017-09-13T15:38:22.898Z,33.33
2017-09-13T15:40:53.884Z,34.87
2017-09-13T15:43:23.554Z,24.93
2017-09-13T15:45:52.740Z,22.10
2017-09-13T15:48:21.985Z,24.83
2017-09-13T15:50:51.163Z,43.63
2017-09-13T15:53:20.310Z,20.77
2017-09-13T15:55:52.724Z,28.93
2017-09-13T15:58:21.983Z,32.30
2017-09-13T16:00:51.840Z,35.53
2017-09-13T16:03:21.359Z,48.70
2017-09-13T16:05:52.376Z,38.70
2017-09-13T16:08:22.640Z,30.50
2017-09-13T16:10:51.737Z,48.67
2017-09-13T16:13:20.931Z,37.03
2017-09-13T16:15:50.220Z,33.93
2017-09-13T16:18:22.351Z,31.30
2017-09-13T16:20:51.931Z,39.37
2017-09-13T16:23:22.275Z,38.13
2017-09-13T16:25:54.630Z,34.67
2017-09-13T16:28:25.550Z,33.60
2017-09-13T16:30:55.274Z,35.20
2017-09-13T16:33:24.695Z,50.83
2017-09-13T16:35:54.677Z,35.67
2017-09-13T16:38:24.877Z,28.97
2017-09-13T16:40:54.968Z,21.43
2017-09-13T16:43:25.562Z,39.33
2017-09-13T16:45:57.361Z,33.60
2017-09-13T16:48:27.374Z,37.77
2017-09-13T16:50:57.234Z,16.33
2017-09-13T16:53:27.026Z,30.73
2017-09-13T16:55:56.811Z,32.53
2017-09-13T16:58:33.358Z,32.93
2017-09-13T17:01:03.145Z,32.23
2017-09-13T17:03:32.940Z,35.53
2017-09-13T17:06:03.470Z,23.10
2017-09-13T17:08:34.639Z,28.63
2017-09-13T17:11:04.783Z,23.23
2017-09-13T17:13:33.933Z,17.27
2017-09-13T17:16:03.106Z,23.53
2017-09-13T17:18:32.429Z,46.60
2017-09-13T17:21:01.665Z,38.57
2017-09-13T17:23:30.805Z,34.67
2017-09-13T17:26:00.550Z,28.83
2017-09-13T17:28:29.734Z,16.37
2017-09-13T17:30:58.910Z,23.63
2017-09-13T17:33:29.537Z,23.50
2017-09-13T17:36:00.077Z,34.60
2017-09-13T17:38:30.151Z,28.13
2017-09-13T17:40:59.270Z,35.57
2017-09-13T17:43:31.263Z,34.60
2017-09-13T17:46:06.517Z,21.30
2017-09-13T17:48:47.334Z,24.17
2017-09-13T17:51:18.864Z,32.63
2017-09-13T17:53:49.707Z,49.20
2017-09-13T17:56:19.218Z,33.73
2017-09-13T17:58:52.986Z,29.07
2017-09-13T18:01:24.210Z,31.93
2017-09-13T18:04:06.316Z,39.70
2017-09-13T18:06:37.605Z,64.00
2017-09-13T18:09:16.247Z,37.80
2017-09-13T18:11:47.398Z,48.63
2017-09-13T18:14:19.381Z,43.87
2017-09-13T18:16:50.800Z,25.33
2017-09-13T18:19:20.588Z,28.97
2017-09-13T18:21:49.733Z,24.67
2017-09-13T18:24:20.890Z,28.50
2017-09-13T18:26:56.303Z,21.63
2017-09-13T18:29:26.571Z,22.63
2017-09-13T18:31:55.849Z,28.53
2017-09-13T18:34:25.055Z,21.27
2017-09-13T18:36:54.154Z,29.97
2017-09-13T18:39:24.223Z,32.10
2017-09-13T18:41:55.341Z,45.37
2017-09-13T18:44:24.871Z,22.63
2017-09-13T18:46:54.021Z,23.23
2017-09-13T18:49:23.500Z,30.20
2017-09-13T18:51:52.822Z,27.07
2017-09-13T18:54:23.407Z,34.90
2017-09-13T18:56:53.926Z,44.23
2017-09-13T18:59:23.954Z,29.97
2017-09-13T19:01:54.558Z,23.37
2017-09-13T19:04:27.583Z,42.03
2017-09-13T19:07:01.376Z,44.70
2017-09-13T19:09:30.530Z,36.83
2017-09-13T19:12:00.978Z,25.43
2017-09-13T19:14:30.995Z,48.00
2017-09-13T19:17:00.117Z,27.93
2017-09-13T19:19:29.290Z,27.00
2017-09-13T19:21:58.493Z,16.93
2017-09-13T19:24:27.839Z,26.67
2017-09-13T19:27:08.201Z,22.03
2017-09-13T19:29:41.984Z,36.37
2017-09-13T19:32:19.732Z,28.80
2017-09-13T19:34:51.956Z,26.80
2017-09-13T19:37:22.361Z,30.20
2017-09-13T19:39:51.648Z,32.60
2017-09-13T19:42:23.219Z,22.70
2017-09-13T19:44:52.371Z,33.77
2017-09-13T19:47:22.661Z,37.90
2017-09-13T19:49:52.675Z,19.33
2017-09-13T19:52:22.067Z,21.37
2017-09-13T19:54:56.503Z,41.60
2017-09-13T19:57:25.921Z,48.67
2017-09-13T19:59:55.378Z,32.37
2017-09-13T20:02:26.837Z,33.03
2017-09-13T20:04:58.053Z,46.87
2017-09-13T20:07:27.346Z,20.30
2017-09-13T20:10:01.077Z,27.30
2017-09-13T20:12:31.265Z,24.40
2017-09-13T20:15:01.438Z,31.67
2017-09-13T20:17:31.749Z,20.10
2017-09-13T20:20:00.977Z,18.10
2017-09-13T20:22:38.125Z,24.73
2017-09-13T20:25:46.141Z,18.80
2017-09-13T20:28:19.022Z,33.60
2017-09-13T20:30:52.256Z,36.70
2017-09-13T20:33:22.450Z,36.50
2017-09-13T20:35:58.202Z,23.60
2017-09-13T20:38:33.253Z,24.87
2017-09-13T20:41:03.855Z,36.13
2017-09-13T20:43:36.267Z,32.27
2017-09-13T20:46:09.110Z,43.40
2017-09-13T20:48:42.623Z,37.30
2017-09-13T20:51:12.625Z,27.57
2017-09-13T20:53:42.472Z,32.07
2017-09-13T20:56:13.852Z,32.43
2017-09-13T20:58:44.835Z,16.80
2017-09-13T21:01:15.435Z,29.40
2017-09-13T21:03:44.887Z,19.43
2017-09-13T21:06:14.573Z,23.67
2017-09-13T21:08:44.330Z,54.03
2017-09-13T21:11:16.963Z,31.63
2017-09-13T21:13:46.389Z,29.37
2017-09-13T21:16:16.899Z,17.43
2017-09-13T21:18:47.008Z,20.30
2017-09-13T21:21:16.446Z,23.40
2017-09-13T21:23:52.558Z,21.43
2017-09-13T21:26:26.048Z,19.43
2017-09-13T21:28:55.243Z,27.67
2017-09-13T21:31:24.417Z,17.03
2017-09-13T21:33:54.240Z,21.50
2017-09-13T21:36:24.450Z,26.50
2017-09-13T21:38:54.724Z,36.50
2017-09-13T21:41:23.882Z,20.00
2017-09-13T21:44:03.056Z,25.30
2017-09-13T21:46:32.646Z,20.23
2017-09-13T21:49:01.921Z,25.50
2017-09-13T21:51:31.149Z,27.97
2017-09-13T21:54:01.018Z,16.20
2017-09-13T21:56:31.272Z,22.87
2017-09-13T21:59:00.418Z,16.37
2017-09-13T22:01:29.599Z,20.13
2017-09-13T22:03:59.010Z,24.30
2017-09-13T22:06:29.142Z,27.63
2017-09-13T22:08:59.623Z,22.63
2017-09-13T22:11:29.538Z,19.50
2017-09-13T22:13:58.630Z,25.77
2017-09-13T22:16:28.746Z,12.87
2017-09-13T22:18:58.021Z,18.60
2017-09-13T22:21:27.150Z,27.63
2017-09-13T22:23:56.453Z,25.87
2017-09-13T22:26:25.626Z,20.20
2017-09-13T22:28:55.406Z,18.43
2017-09-13T22:31:24.710Z,36.40
2017-09-13T22:33:53.861Z,12.90
2017-09-13T22:36:22.988Z,16.23
2017-09-13T22:38:53.773Z,20.23
2017-09-13T22:41:22.892Z,15.73
2017-09-13T22:43:51.987Z,29.60
2017-09-13T22:46:21.973Z,19.10
2017-09-13T22:48:53.031Z,9.73
2017-09-13T22:51:22.349Z,15.83
2017-09-13T22:53:51.468Z,24.63
2017-09-13T22:56:21.460Z,14.33
2017-09-13T22:58:50.743Z,7.90
2017-09-13T23:01:19.957Z,13.70
2017-09-13T23:03:49.822Z,16.60
2017-09-13T23:06:19.019Z,21.93
2017-09-13T23:08:48.231Z,10.00
2017-09-13T23:11:18.415Z,17.13
2017-09-13T23:13:48.796Z,13.90
2017-09-13T23:16:17.938Z,14.03
2017-09-13T23:18:47.063Z,26.40
2017-09-13T23:21:16.569Z,11.90
2017-09-13T23:23:45.824Z,12.20
2017-09-13T23:26:15.366Z,29.87
2017-09-13T23:28:45.091Z,13.33
2017-09-13T23:31:15.418Z,22.47
2017-09-13T23:33:44.667Z,17.43
2017-09-13T23:36:13.941Z,30.97
2017-09-13T23:38:43.126Z,12.27
2017-09-13T23:41:12.273Z,22.10
2017-09-13T23:43:42.406Z,20.93
2017-09-13T23:46:12.037Z,5.33
2017-09-13T23:48:41.417Z,23.50
2017-09-13T23:51:10.949Z,17.50
2017-09-13T23:53:40.958Z,9.27
2017-09-13T23:56:10.361Z,12.50
2017-09-13T23:58:39.563Z,12.93
